Time;durP1;ratioP1;P1;durP2;ratioP2;P2;SDS_P1;SDS_P2;PMS_P1;PMS_P2;Temp;Humidity;BMP_temperature;BMP_pressure;BME280_temperature;BME280_humidity;BME280_pressure;Samples;Min_cycle;Max_cycle;Signal;HPM_P1;HPM_P2
2023/10/28 00:01:14;;;;;;;7.10;3.03;;;;;;;;;;5946570;29;20051;-88
2023/10/28 00:04:15;;;;;;;10.15;3.00;;;;;;;;;;5950426;29;20055;-89
2023/10/28 00:07:17;;;;;;;6.18;2.90;;;;;;;;;;5949276;29;20031;-88
2023/10/28 00:10:21;;;;;;;9.55;3.58;;;;;;;;;;5964974;29;20050;-89
2023/10/28 00:13:23;;;;;;;10.98;3.08;;;;;;;;;;5962081;29;20063;-89
2023/10/28 00:16:24;;;;;;;8.40;2.80;;;;;;;;;;5979215;29;20031;-89
2023/10/28 00:19:28;;;;;;;5.28;2.63;;;;;;;;;;5966552;29;20087;-88
2023/10/28 00:22:30;;;;;;;6.32;2.40;;;;;;;;;;5968177;29;20397;-89
2023/10/28 00:25:32;;;;;;;6.50;3.27;;;;;;;;;;5958312;29;20106;-88
2023/10/28 00:28:34;;;;;;;4.40;2.40;;;;;;;;;;5951715;29;20461;-88
2023/10/28 00:31:36;;;;;;;10.05;2.88;;;;;;;;;;5936464;29;20050;-88
2023/10/28 00:34:38;;;;;;;7.85;3.15;;;;;;;;;;5952428;29;20429;-89
2023/10/28 00:37:40;;;;;;;7.25;3.30;;;;;;;;;;5946758;29;20043;-88
2023/10/28 00:40:42;;;;;;;6.45;3.15;;;;;;;;;;5951892;29;20328;-89
2023/10/28 00:43:47;;;;;;;8.45;3.25;;;;;;;;;;5944604;29;20081;-89
2023/10/28 00:46:50;;;;;;;11.40;4.45;;;;;;;;;;5947785;29;20063;-88
2023/10/28 00:49:51;;;;;;;9.38;4.15;;;;;;;;;;5947256;29;20250;-88
2023/10/28 00:52:54;;;;;;;5.93;3.60;;;;;;;;;;5954055;29;20047;-88
2023/10/28 00:55:56;;;;;;;8.18;3.30;;;;;;;;;;5953281;29;20051;-87
2023/10/28 00:58:58;;;;;;;6.15;3.10;;;;;;;;;;5948467;29;20545;-88
2023/10/28 01:02:00;;;;;;;9.60;3.17;;;;;;;;;;5942763;29;20158;-89
2023/10/28 01:05:04;;;;;;;7.47;3.80;;;;;;;;;;5945388;29;20648;-88
2023/10/28 01:08:06;;;;;;;9.82;3.17;;;;;;;;;;5941026;29;20054;-88
2023/10/28 01:11:09;;;;;;;9.48;3.60;;;;;;;;;;5947136;29;20403;-88
2023/10/28 01:14:11;;;;;;;6.83;3.87;;;;;;;;;;5932370;29;20414;-89
2023/10/28 01:17:13;;;;;;;11.55;3.60;;;;;;;;;;5948681;29;20464;-88
2023/10/28 01:20:16;;;;;;;8.47;4.10;;;;;;;;;;5952702;29;20046;-89
2023/10/28 01:23:18;;;;;;;7.30;3.60;;;;;;;;;;5953723;29;20042;-89
2023/10/28 01:26:20;;;;;;;9.43;3.20;;;;;;;;;;5946900;29;20071;-89
2023/10/28 01:29:22;;;;;;;7.75;3.30;;;;;;;;;;5953874;29;20050;-88
2023/10/28 01:32:24;;;;;;;8.05;3.35;;;;;;;;;;5935687;29;20088;-89
2023/10/28 01:35:25;;;;;;;7.72;3.00;;;;;;;;;;5953099;29;20504;-88
2023/10/28 01:38:27;;;;;;;8.18;3.33;;;;;;;;;;5935240;29;20429;-90
2023/10/28 01:41:29;;;;;;;9.23;3.53;;;;;;;;;;5948668;29;20296;-89
2023/10/28 01:44:34;;;;;;;9.20;3.50;;;;;;;;;;5952577;29;20054;-89
2023/10/28 01:47:41;;;;;;;9.63;3.33;;;;;;;;;;5952561;29;20137;-89
2023/10/28 01:50:43;;;;;;;8.70;3.50;;;;;;;;;;5952107;29;20526;-89
2023/10/28 01:53:45;;;;;;;10.25;3.50;;;;;;;;;;5949953;29;20062;-88
2023/10/28 01:56:46;;;;;;;6.93;2.88;;;;;;;;;;5947416;29;20418;-89
2023/10/28 01:59:48;;;;;;;6.05;3.03;;;;;;;;;;5936926;29;20066;-89
2023/10/28 02:02:50;;;;;;;6.25;3.08;;;;;;;;;;5936051;29;20332;-88
2023/10/28 02:05:52;;;;;;;7.33;3.40;;;;;;;;;;5951483;29;20059;-91
2023/10/28 02:08:54;;;;;;;5.63;3.20;;;;;;;;;;5948157;29;20460;-89
2023/10/28 02:11:55;;;;;;;7.60;3.08;;;;;;;;;;5948082;29;20558;-89
2023/10/28 02:14:57;;;;;;;6.07;3.45;;;;;;;;;;5947876;29;20406;-89
2023/10/28 02:17:59;;;;;;;5.18;3.05;;;;;;;;;;5951076;29;20175;-88
2023/10/28 02:21:01;;;;;;;4.47;2.97;;;;;;;;;;5935043;29;20396;-89
2023/10/28 02:24:03;;;;;;;6.28;2.67;;;;;;;;;;5934711;29;20055;-89
2023/10/28 02:27:05;;;;;;;4.67;2.90;;;;;;;;;;5942333;29;20204;-90
2023/10/28 02:30:09;;;;;;;6.07;3.15;;;;;;;;;;5950692;29;20082;-88
2023/10/28 02:33:11;;;;;;;4.95;2.97;;;;;;;;;;5951467;29;20070;-88
2023/10/28 02:36:13;;;;;;;4.90;2.92;;;;;;;;;;5947681;29;20142;-89
2023/10/28 02:39:14;;;;;;;4.78;2.95;;;;;;;;;;5947650;29;20111;-89
2023/10/28 02:42:16;;;;;;;4.22;2.92;;;;;;;;;;5951604;29;20071;-89
2023/10/28 02:45:18;;;;;;;4.50;2.65;;;;;;;;;;5932931;29;20514;-89
2023/10/28 02:48:19;;;;;;;3.53;2.53;;;;;;;;;;5952151;29;20135;-89
2023/10/28 02:51:21;;;;;;;5.40;2.50;;;;;;;;;;5946849;29;20610;-88
2023/10/28 02:54:23;;;;;;;2.97;2.05;;;;;;;;;;5933443;29;21353;-87
2023/10/28 02:57:25;;;;;;;2.58;1.90;;;;;;;;;;5949907;29;20141;-88
2023/10/28 03:00:26;;;;;;;4.20;2.05;;;;;;;;;;5930587;29;20051;-88
2023/10/28 03:03:28;;;;;;;3.45;2.00;;;;;;;;;;5935381;29;20125;-88
2023/10/28 03:06:31;;;;;;;5.35;2.15;;;;;;;;;;5944278;29;20101;-88
2023/10/28 03:09:33;;;;;;;2.63;2.08;;;;;;;;;;5933971;29;20051;-90
2023/10/28 03:12:34;;;;;;;4.15;2.13;;;;;;;;;;5933766;29;20078;-88
2023/10/28 03:15:36;;;;;;;4.65;2.33;;;;;;;;;;5946809;29;20050;-88
2023/10/28 03:18:38;;;;;;;3.67;1.83;;;;;;;;;;5947985;29;20058;-88
2023/10/28 03:21:40;;;;;;;3.28;2.00;;;;;;;;;;5934337;29;20514;-88
2023/10/28 03:24:41;;;;;;;2.58;1.75;;;;;;;;;;5932345;29;20077;-88
2023/10/28 03:27:43;;;;;;;2.80;2.10;;;;;;;;;;5933028;29;20051;-88
2023/10/28 03:30:45;;;;;;;3.58;1.90;;;;;;;;;;5926649;29;20063;-87
2023/10/28 03:33:46;;;;;;;2.70;1.70;;;;;;;;;;5932114;29;20156;-88
2023/10/28 03:36:50;;;;;;;;;;;;;;;;;;5932196;29;20058;-88
2023/10/28 03:39:52;;;;;;;2.40;1.70;;;;;;;;;;5932432;29;21216;-88
2023/10/28 03:42:54;;;;;;;3.65;1.60;;;;;;;;;;5943322;29;20050;-88
2023/10/28 03:45:56;;;;;;;1.67;1.58;;;;;;;;;;5935658;29;20131;-88
2023/10/28 03:48:58;;;;;;;2.47;1.40;;;;;;;;;;5947189;29;20131;-87
2023/10/28 03:52:00;;;;;;;3.70;1.60;;;;;;;;;;5945353;29;20058;-88
2023/10/28 03:55:03;;;;;;;1.70;1.10;;;;;;;;;;5922813;29;20140;-89
2023/10/28 03:58:04;;;;;;;2.80;1.00;;;;;;;;;;5930364;29;20522;-88
2023/10/28 04:01:06;;;;;;;2.80;1.02;;;;;;;;;;5928123;29;20813;-88
2023/10/28 04:04:08;;;;;;;1.27;0.95;;;;;;;;;;5934909;29;20553;-89
2023/10/28 04:07:10;;;;;;;1.25;0.80;;;;;;;;;;5935584;29;20151;-88
2023/10/28 04:10:12;;;;;;;1.45;1.05;;;;;;;;;;5944074;29;20051;-88
2023/10/28 04:13:14;;;;;;;0.70;0.70;;;;;;;;;;5946829;29;20542;-88
2023/10/28 04:16:16;;;;;;;0.80;0.60;;;;;;;;;;5930786;29;20042;-89
2023/10/28 04:19:18;;;;;;;0.80;0.80;;;;;;;;;;5953755;29;20092;-89
2023/10/28 04:22:19;;;;;;;2.30;1.00;;;;;;;;;;5928871;29;20051;-89
2023/10/28 04:25:21;;;;;;;1.75;0.82;;;;;;;;;;5949464;29;20153;-88
2023/10/28 04:28:23;;;;;;;1.95;1.15;;;;;;;;;;5933202;29;20047;-88
2023/10/28 04:31:24;;;;;;;1.98;0.80;;;;;;;;;;5947144;29;20077;-89
2023/10/28 04:34:26;;;;;;;0.70;0.60;;;;;;;;;;5943536;29;20043;-88
2023/10/28 04:37:37;;;;;;;1.25;0.70;;;;;;;;;;5939713;29;20061;-88
2023/10/28 04:40:40;;;;;;;1.27;0.80;;;;;;;;;;5930426;29;20141;-88
2023/10/28 04:43:42;;;;;;;1.77;0.60;;;;;;;;;;5932563;29;20051;-88
2023/10/28 04:46:44;;;;;;;2.33;0.80;;;;;;;;;;5928099;29;20066;-88
2023/10/28 04:49:45;;;;;;;2.10;0.77;;;;;;;;;;5943227;29;20422;-89
2023/10/28 04:52:47;;;;;;;1.05;0.90;;;;;;;;;;5947567;29;20054;-88
2023/10/28 04:55:49;;;;;;;1.60;0.80;;;;;;;;;;5948013;29;20051;-88
2023/10/28 04:58:51;;;;;;;1.02;0.65;;;;;;;;;;5939318;29;20078;-88
2023/10/28 05:01:53;;;;;;;1.42;0.65;;;;;;;;;;5953620;29;20043;-88
2023/10/28 05:04:54;;;;;;;0.90;0.68;;;;;;;;;;5937974;29;20084;-87
2023/10/28 05:07:56;;;;;;;1.83;0.90;;;;;;;;;;5937177;29;20054;-88
2023/10/28 05:10:58;;;;;;;1.90;0.65;;;;;;;;;;5976732;29;20038;-88
2023/10/28 05:13:59;;;;;;;2.45;0.77;;;;;;;;;;5976355;29;20051;-90
2023/10/28 05:17:01;;;;;;;3.80;1.05;;;;;;;;;;5969347;29;20050;-88
2023/10/28 05:20:07;;;;;;;0.95;0.80;;;;;;;;;;5987849;29;20043;-88
2023/10/28 05:23:09;;;;;;;0.85;0.77;;;;;;;;;;5972136;29;20055;-88
2023/10/28 05:26:11;;;;;;;1.30;0.88;;;;;;;;;;5961474;29;20055;-88
2023/10/28 05:29:13;;;;;;;0.95;0.80;;;;;;;;;;5967841;29;20051;-88
2023/10/28 05:32:14;;;;;;;2.03;1.20;;;;;;;;;;5968649;29;20051;-88
2023/10/28 05:35:16;;;;;;;1.35;1.25;;;;;;;;;;5954399;29;20130;-88
2023/10/28 05:38:20;;;;;;;1.67;1.40;;;;;;;;;;5979764;29;20059;-89
2023/10/28 05:41:22;;;;;;;2.53;1.10;;;;;;;;;;5980510;29;20084;-89
2023/10/28 05:44:23;;;;;;;0.80;0.80;;;;;;;;;;5976640;29;20058;-87
2023/10/28 05:47:25;;;;;;;0.75;0.73;;;;;;;;;;5976766;29;20061;-88
2023/10/28 05:50:27;;;;;;;2.67;0.90;;;;;;;;;;5964345;29;20054;-89
2023/10/28 05:53:29;;;;;;;2.53;1.02;;;;;;;;;;5952246;29;20055;-89
2023/10/28 05:56:31;;;;;;;2.58;0.95;;;;;;;;;;5954919;29;20140;-89
2023/10/28 05:59:33;;;;;;;3.33;0.90;;;;;;;;;;5935440;29;20044;-89
2023/10/28 06:02:34;;;;;;;2.38;1.10;;;;;;;;;;5952422;29;20059;-90
2023/10/28 06:05:36;;;;;;;2.92;1.30;;;;;;;;;;5940175;29;20084;-89
2023/10/28 06:08:38;;;;;;;2.42;1.30;;;;;;;;;;5945298;29;20527;-88
2023/10/28 06:11:40;;;;;;;9.77;1.27;;;;;;;;;;5943189;29;20545;-89
2023/10/28 06:14:44;;;;;;;3.17;1.70;;;;;;;;;;5937439;29;20119;-90
2023/10/28 06:17:46;;;;;;;1.98;1.70;;;;;;;;;;5953558;29;20054;-89
2023/10/28 06:20:48;;;;;;;4.45;1.65;;;;;;;;;;5936644;29;20057;-88
2023/10/28 06:23:50;;;;;;;3.40;1.77;;;;;;;;;;5939198;29;20078;-90
2023/10/28 06:26:52;;;;;;;9.43;3.60;;;;;;;;;;5932306;29;20544;-89
2023/10/28 06:29:53;;;;;;;8.77;3.95;;;;;;;;;;5948018;29;20047;-88
2023/10/28 06:32:55;;;;;;;19.30;8.95;;;;;;;;;;5932679;29;20476;-88
2023/10/28 06:35:57;;;;;;;5.13;2.35;;;;;;;;;;5945958;29;20076;-89
2023/10/28 06:38:59;;;;;;;24.63;9.75;;;;;;;;;;5950888;29;20099;-89
2023/10/28 06:42:01;;;;;;;4.93;2.60;;;;;;;;;;5948898;29;20078;-88
2023/10/28 06:45:07;;;;;;;29.38;10.52;;;;;;;;;;5934925;29;20050;-88
2023/10/28 06:48:12;;;;;;;4.60;2.17;;;;;;;;;;5947589;29;20059;-89
2023/10/28 06:51:13;;;;;;;22.15;8.88;;;;;;;;;;5945071;29;20625;-89
2023/10/28 06:54:15;;;;;;;13.15;5.68;;;;;;;;;;5935430;29;20196;-90
2023/10/28 06:57:17;;;;;;;16.60;8.02;;;;;;;;;;5951792;29;20059;-88
2023/10/28 07:00:23;;;;;;;12.43;5.55;;;;;;;;;;5951013;29;20050;-88
2023/10/28 07:03:25;;;;;;;10.02;4.95;;;;;;;;;;5947178;29;20051;-89
2023/10/28 07:06:27;;;;;;;6.75;3.40;;;;;;;;;;5933346;29;20051;-89
2023/10/28 07:09:28;;;;;;;5.10;3.03;;;;;;;;;;5952631;29;20154;-89
2023/10/28 07:12:31;;;;;;;5.05;2.10;;;;;;;;;;5950863;29;20050;-90
2023/10/28 07:15:34;;;;;;;3.00;1.73;;;;;;;;;;5944954;29;20074;-89
2023/10/28 07:18:37;;;;;;;1.83;1.35;;;;;;;;;;5931883;29;20051;-90
2023/10/28 07:21:39;;;;;;;2.10;1.40;;;;;;;;;;5946825;29;20054;-90
2023/10/28 07:24:42;;;;;;;7.50;3.50;;;;;;;;;;5946257;29;20155;-90
2023/10/28 07:27:44;;;;;;;4.35;2.10;;;;;;;;;;5946098;29;20212;-90
2023/10/28 07:30:48;;;;;;;3.92;2.90;;;;;;;;;;5951217;29;20528;-90
2023/10/28 07:33:50;;;;;;;3.03;1.20;;;;;;;;;;5949778;29;20065;-89
2023/10/28 07:36:52;;;;;;;3.75;1.00;;;;;;;;;;5945952;29;20043;-88
2023/10/28 07:39:53;;;;;;;2.72;1.80;;;;;;;;;;5950653;29;21303;-90
2023/10/28 07:42:55;;;;;;;2.13;1.80;;;;;;;;;;5947846;29;20050;-89
2023/10/28 07:45:56;;;;;;;5.50;2.95;;;;;;;;;;5946997;29;20518;-89
2023/10/28 07:48:58;;;;;;;4.03;1.63;;;;;;;;;;5934950;29;20114;-89
2023/10/28 07:52:00;;;;;;;4.65;1.40;;;;;;;;;;5948539;29;20058;-88
2023/10/28 07:55:04;;;;;;;1.92;1.50;;;;;;;;;;5933822;29;20043;-89
2023/10/28 07:58:06;;;;;;;4.40;1.40;;;;;;;;;;5947291;29;20159;-89
2023/10/28 08:01:16;;;;;;;6.40;1.65;;;;;;;;;;5950482;29;20104;-88
2023/10/28 08:04:17;;;;;;;4.60;1.73;;;;;;;;;;5935501;29;20129;-88
2023/10/28 08:07:19;;;;;;;3.83;1.52;;;;;;;;;;5944731;29;20092;-89
2023/10/28 08:10:24;;;;;;;4.97;2.92;;;;;;;;;;5950895;29;20429;-89
2023/10/28 08:13:26;;;;;;;5.75;1.80;;;;;;;;;;5935652;29;20061;-89
2023/10/28 08:16:27;;;;;;;2.00;1.20;;;;;;;;;;5944194;29;20047;-90
2023/10/28 08:19:29;;;;;;;3.95;1.27;;;;;;;;;;5949004;29;20054;-89
2023/10/28 08:22:31;;;;;;;3.53;1.25;;;;;;;;;;5950473;29;20050;-89
2023/10/28 08:25:35;;;;;;;5.13;1.55;;;;;;;;;;5933225;29;20055;-91
2023/10/28 08:28:37;;;;;;;3.45;2.13;;;;;;;;;;5950781;29;20051;-90
2023/10/28 08:31:39;;;;;;;4.07;1.50;;;;;;;;;;5935173;29;20498;-90
2023/10/28 08:34:41;;;;;;;2.70;1.70;;;;;;;;;;5950095;29;20089;-91
2023/10/28 08:37:43;;;;;;;5.57;2.30;;;;;;;;;;5934583;29;20434;-90
2023/10/28 08:40:46;;;;;;;7.57;4.15;;;;;;;;;;5941100;29;20054;-91
2023/10/28 08:43:48;;;;;;;4.60;2.50;;;;;;;;;;5935233;29;20062;-90
2023/10/28 08:46:50;;;;;;;7.15;3.83;;;;;;;;;;5934367;29;20063;-89
2023/10/28 08:49:54;;;;;;;7.07;3.40;;;;;;;;;;5934566;29;20046;-90
2023/10/28 08:52:57;;;;;;;8.43;3.58;;;;;;;;;;5943313;29;20047;-91
2023/10/28 08:56:01;;;;;;;3.90;1.85;;;;;;;;;;5948398;29;20042;-90
2023/10/28 08:59:02;;;;;;;5.53;2.22;;;;;;;;;;5964124;29;20054;-89
2023/10/28 09:02:08;;;;;;;5.50;3.20;;;;;;;;;;5934657;29;20081;-91
2023/10/28 09:05:14;;;;;;;4.82;3.50;;;;;;;;;;5950428;29;20260;-90
2023/10/28 09:08:16;;;;;;;5.80;1.75;;;;;;;;;;5941472;29;20183;-89
2023/10/28 09:11:19;;;;;;;3.08;2.00;;;;;;;;;;5935785;29;20073;-90
2023/10/28 09:14:21;;;;;;;7.05;3.50;;;;;;;;;;5948827;29;20057;-90
2023/10/28 09:17:23;;;;;;;7.13;2.78;;;;;;;;;;5930718;29;20047;-91
2023/10/28 09:20:25;;;;;;;7.03;3.35;;;;;;;;;;5948609;29;20548;-89
2023/10/28 09:23:30;;;;;;;5.38;2.30;;;;;;;;;;5949530;29;20466;-90
2023/10/28 09:26:32;;;;;;;5.97;1.73;;;;;;;;;;5936133;29;20047;-90
2023/10/28 09:29:34;;;;;;;7.85;3.45;;;;;;;;;;5936576;29;20422;-90
2023/10/28 09:32:36;;;;;;;3.03;1.85;;;;;;;;;;5948266;29;20088;-90
2023/10/28 09:35:40;;;;;;;5.40;2.25;;;;;;;;;;5963316;29;20047;-90
2023/10/28 09:38:45;;;;;;;3.63;1.75;;;;;;;;;;5952158;29;20058;-90
2023/10/28 09:41:46;;;;;;;4.95;1.60;;;;;;;;;;5954253;29;20062;-89
2023/10/28 09:44:48;;;;;;;4.13;2.13;;;;;;;;;;5954571;29;20050;-90
2023/10/28 09:48:05;;;;;;;3.97;1.50;;;;;;;;;;5952022;29;20066;-91
2023/10/28 09:51:07;;;;;;;6.22;2.35;;;;;;;;;;5956180;29;20059;-89
2023/10/28 09:54:19;;;;;;;5.75;2.03;;;;;;;;;;5937719;29;20047;-90
2023/10/28 09:57:20;;;;;;;12.73;5.43;;;;;;;;;;5944697;29;20075;-90
2023/10/28 10:00:25;;;;;;;3.80;3.40;;;;;;;;;;5953639;29;20055;-90
2023/10/28 10:04:02;;;;;;;3.13;2.40;;;;;;;;;;5950710;29;20847;-90
2023/10/28 10:07:04;;;;;;;7.82;3.22;;;;;;;;;;5972964;29;20065;-91
2023/10/28 10:10:13;;;;;;;5.80;3.20;;;;;;;;;;5943327;29;20566;-90
2023/10/28 10:13:16;;;;;;;8.60;3.83;;;;;;;;;;5935246;29;20050;-90
2023/10/28 10:16:39;;;;;;;5.15;2.80;;;;;;;;;;5953173;29;20057;-90
2023/10/28 10:19:40;;;;;;;8.15;4.47;;;;;;;;;;5952478;29;20391;-90
2023/10/28 10:22:42;;;;;;;3.83;1.60;;;;;;;;;;5937649;29;20553;-90
2023/10/28 10:25:45;;;;;;;6.03;1.60;;;;;;;;;;5947936;29;20050;-90
2023/10/28 10:28:47;;;;;;;2.95;1.35;;;;;;;;;;5954338;29;20160;-91
2023/10/28 10:31:55;;;;;;;4.43;1.70;;;;;;;;;;5930886;29;20101;-90
2023/10/28 10:34:56;;;;;;;4.30;2.70;;;;;;;;;;5950349;29;20039;-91
2023/10/28 10:38:05;;;;;;;4.30;1.63;;;;;;;;;;5953007;29;20060;-91
2023/10/28 10:41:07;;;;;;;6.50;3.28;;;;;;;;;;5949240;29;20072;-89
2023/10/28 10:44:31;;;;;;;;;;;;;;;;;;5936694;29;20111;-88
2023/10/28 10:47:34;;;;;;;11.90;3.50;;;;;;;;;;5958205;29;20382;-89
2023/10/28 10:50:37;;;;;;;6.00;2.67;;;;;;;;;;5952293;29;20058;-90
2023/10/28 10:53:45;;;;;;;4.78;3.00;;;;;;;;;;5954486;29;20039;-89
2023/10/28 10:56:48;;;;;;;10.23;5.43;;;;;;;;;;5939603;29;20406;-89
2023/10/28 10:59:50;;;;;;;5.57;3.00;;;;;;;;;;5953233;29;20050;-89
2023/10/28 11:02:57;;;;;;;6.60;3.03;;;;;;;;;;5936950;29;20482;-89
2023/10/28 11:05:59;;;;;;;6.57;3.75;;;;;;;;;;5945575;29;20059;-90
2023/10/28 11:09:03;;;;;;;5.13;1.65;;;;;;;;;;5951270;29;20137;-89
2023/10/28 11:12:05;;;;;;;4.95;1.75;;;;;;;;;;5953528;29;20054;-89
2023/10/28 11:15:08;;;;;;;4.15;1.38;;;;;;;;;;5949257;29;20050;-89
2023/10/28 11:18:10;;;;;;;;;;;;;;;;;;5941500;29;20051;-90
2023/10/28 11:21:12;;;;;;;5.30;2.78;;;;;;;;;;5955444;29;19929;-89
2023/10/28 11:24:17;;;;;;;9.63;4.40;;;;;;;;;;5968979;29;20081;-91
2023/10/28 11:27:19;;;;;;;5.30;3.60;;;;;;;;;;5980785;29;20477;-91
2023/10/28 11:30:21;;;;;;;5.22;1.80;;;;;;;;;;5975750;29;20068;-90
2023/10/28 11:33:26;;;;;;;2.83;2.20;;;;;;;;;;5979911;29;20042;-90
2023/10/28 11:36:33;;;;;;;5.20;1.50;;;;;;;;;;5947917;29;20070;-90
2023/10/28 11:39:37;;;;;;;2.72;1.40;;;;;;;;;;5951491;29;20055;-89
2023/10/28 11:42:39;;;;;;;2.65;1.40;;;;;;;;;;5941798;29;20402;-89
2023/10/28 11:45:40;;;;;;;2.33;1.73;;;;;;;;;;5936799;29;20576;-89
2023/10/28 11:48:45;;;;;;;4.50;1.60;;;;;;;;;;5939329;29;20062;-89
2023/10/28 11:51:47;;;;;;;3.90;1.48;;;;;;;;;;5943029;29;20063;-91
2023/10/28 11:54:49;;;;;;;4.03;1.40;;;;;;;;;;5950185;29;20055;-90
2023/10/28 11:57:51;;;;;;;4.95;1.58;;;;;;;;;;5934832;29;20118;-90
2023/10/28 12:00:55;;;;;;;4.82;2.65;;;;;;;;;;5944630;29;20054;-91
2023/10/28 12:03:56;;;;;;;4.25;1.90;;;;;;;;;;5951522;29;20055;-90
2023/10/28 12:06:59;;;;;;;6.32;3.90;;;;;;;;;;5940213;29;20171;-90
2023/10/28 12:10:06;;;;;;;8.25;2.60;;;;;;;;;;5951075;29;20047;-91
2023/10/28 12:13:08;;;;;;;4.80;2.83;;;;;;;;;;5951666;29;20061;-90
2023/10/28 12:16:09;;;;;;;4.63;2.17;;;;;;;;;;5937453;29;20142;-91
2023/10/28 12:19:11;;;;;;;4.72;1.70;;;;;;;;;;5950148;29;20051;-90
2023/10/28 12:22:13;;;;;;;19.88;8.68;;;;;;;;;;5935122;29;20473;-90
2023/10/28 12:25:15;;;;;;;28.02;9.43;;;;;;;;;;5948623;29;20539;-90
2023/10/28 12:28:17;;;;;;;9.15;3.13;;;;;;;;;;5936971;29;20059;-90
2023/10/28 12:31:22;;;;;;;10.27;4.78;;;;;;;;;;5929448;29;20333;-90
2023/10/28 12:34:23;;;;;;;11.13;3.95;;;;;;;;;;5937150;29;20050;-89
2023/10/28 12:37:26;;;;;;;6.95;2.80;;;;;;;;;;5962852;29;20061;-90
2023/10/28 12:40:28;;;;;;;5.13;1.90;;;;;;;;;;5951748;29;20047;-89
2023/10/28 12:43:29;;;;;;;8.77;2.05;;;;;;;;;;5939149;29;20055;-90
2023/10/28 12:46:31;;;;;;;4.20;2.50;;;;;;;;;;5948381;29;20620;-89
2023/10/28 12:49:33;;;;;;;4.07;1.90;;;;;;;;;;5928026;29;20055;-91
2023/10/28 12:52:35;;;;;;;4.97;2.42;;;;;;;;;;5947092;29;20573;-90
2023/10/28 12:55:37;;;;;;;6.15;2.60;;;;;;;;;;5951198;29;20047;-91
2023/10/28 12:58:38;;;;;;;4.50;2.10;;;;;;;;;;5948950;29;20429;-90
2023/10/28 13:01:40;;;;;;;7.00;2.88;;;;;;;;;;5934049;29;20385;-90
2023/10/28 13:04:44;;;;;;;3.95;1.45;;;;;;;;;;5934494;29;20138;-90
2023/10/28 13:07:45;;;;;;;4.93;3.08;;;;;;;;;;5944096;29;20094;-90
2023/10/28 13:10:47;;;;;;;3.08;1.40;;;;;;;;;;5930919;29;20146;-91
2023/10/28 13:13:49;;;;;;;4.07;1.73;;;;;;;;;;5940275;29;20533;-90
2023/10/28 13:16:51;;;;;;;10.02;3.15;;;;;;;;;;5951248;29;20557;-90
2023/10/28 13:19:56;;;;;;;2.92;1.55;;;;;;;;;;5948069;29;20066;-91
2023/10/28 13:23:00;;;;;;;3.88;2.40;;;;;;;;;;5951284;29;20526;-91
2023/10/28 13:26:02;;;;;;;5.65;2.80;;;;;;;;;;5942665;29;20046;-88
2023/10/28 13:29:04;;;;;;;5.05;1.90;;;;;;;;;;5952326;29;20062;-90
2023/10/28 13:32:06;;;;;;;1.85;0.85;;;;;;;;;;5951151;29;20395;-92
2023/10/28 13:35:08;;;;;;;4.10;1.27;;;;;;;;;;5944465;29;20577;-91
2023/10/28 13:38:11;;;;;;;3.22;1.58;;;;;;;;;;5953298;29;20175;-91
2023/10/28 13:41:14;;;;;;;5.05;1.67;;;;;;;;;;5956227;29;20046;-90
2023/10/28 13:44:16;;;;;;;2.10;1.38;;;;;;;;;;5939382;29;20047;-90
2023/10/28 13:47:18;;;;;;;5.60;3.53;;;;;;;;;;5938237;29;20055;-90
2023/10/28 13:50:22;;;;;;;2.75;2.30;;;;;;;;;;5956648;29;20062;-90
2023/10/28 13:53:24;;;;;;;5.55;2.53;;;;;;;;;;5941425;29;20071;-90
2023/10/28 13:56:26;;;;;;;11.10;5.28;;;;;;;;;;5936997;29;20059;-90
2023/10/28 13:59:28;;;;;;;8.77;4.03;;;;;;;;;;5933891;29;20412;-91
2023/10/28 14:02:30;;;;;;;5.70;2.75;;;;;;;;;;5949044;29;20141;-90
2023/10/28 14:05:32;;;;;;;5.40;2.63;;;;;;;;;;5937895;29;20058;-90
2023/10/28 14:08:35;;;;;;;4.53;2.20;;;;;;;;;;5936878;29;20053;-89
2023/10/28 14:11:37;;;;;;;7.22;2.42;;;;;;;;;;5954800;29;20058;-90
2023/10/28 14:14:39;;;;;;;7.32;3.42;;;;;;;;;;5935117;29;20217;-89
2023/10/28 14:17:41;;;;;;;7.75;2.28;;;;;;;;;;5945527;29;20051;-90
2023/10/28 14:20:43;;;;;;;3.53;1.70;;;;;;;;;;5938924;29;20063;-90
2023/10/28 14:23:46;;;;;;;6.68;2.08;;;;;;;;;;5937117;29;20047;-90
2023/10/28 14:26:49;;;;;;;15.38;5.20;;;;;;;;;;5932476;29;20552;-90
2023/10/28 14:29:52;;;;;;;11.05;3.95;;;;;;;;;;5932068;29;20063;-90
2023/10/28 14:32:56;;;;;;;5.70;1.95;;;;;;;;;;5954273;29;20103;-90
2023/10/28 14:36:07;;;;;;;8.00;2.70;;;;;;;;;;5936199;29;20046;-90
2023/10/28 14:39:08;;;;;;;6.65;2.17;;;;;;;;;;5969906;29;20047;-91
2023/10/28 14:42:10;;;;;;;4.72;2.13;;;;;;;;;;5982003;29;20072;-90
2023/10/28 14:45:12;;;;;;;5.20;2.20;;;;;;;;;;5967410;29;20183;-91
2023/10/28 14:48:14;;;;;;;6.35;2.50;;;;;;;;;;5962557;29;20046;-90
2023/10/28 14:51:16;;;;;;;7.53;1.70;;;;;;;;;;5947574;29;20055;-89
2023/10/28 14:54:20;;;;;;;5.13;2.40;;;;;;;;;;5941987;29;20047;-89
2023/10/28 14:57:21;;;;;;;5.07;2.67;;;;;;;;;;5931962;29;20055;-90
2023/10/28 15:00:24;;;;;;;5.35;3.33;;;;;;;;;;5949148;29;20545;-91
2023/10/28 15:03:26;;;;;;;8.02;3.58;;;;;;;;;;5940654;29;20066;-89
2023/10/28 15:06:28;;;;;;;8.15;3.05;;;;;;;;;;5934641;29;20059;-90
2023/10/28 15:09:29;;;;;;;9.45;3.53;;;;;;;;;;5934540;29;20108;-90
2023/10/28 15:12:32;;;;;;;7.32;1.95;;;;;;;;;;5934153;29;20079;-92
2023/10/28 15:15:36;;;;;;;8.45;3.65;;;;;;;;;;5934888;29;20184;-91
2023/10/28 15:18:40;;;;;;;8.35;3.30;;;;;;;;;;5942413;29;20510;-91
2023/10/28 15:21:42;;;;;;;7.43;3.20;;;;;;;;;;5936761;29;20057;-91
2023/10/28 15:24:44;;;;;;;5.80;3.25;;;;;;;;;;5948765;29;20051;-90
2023/10/28 15:27:46;;;;;;;9.07;2.47;;;;;;;;;;5948637;29;20510;-91
2023/10/28 15:30:47;;;;;;;9.02;3.42;;;;;;;;;;5936330;29;20084;-90
2023/10/28 15:33:49;;;;;;;4.95;2.95;;;;;;;;;;5933746;29;20562;-89
2023/10/28 15:36:51;;;;;;;6.95;2.85;;;;;;;;;;5933554;29;20051;-89
2023/10/28 15:39:54;;;;;;;7.70;4.07;;;;;;;;;;5948620;29;20447;-89
2023/10/28 15:42:56;;;;;;;7.20;3.78;;;;;;;;;;5944503;29;20051;-89
2023/10/28 15:45:57;;;;;;;6.00;2.60;;;;;;;;;;5948989;29;20523;-89
2023/10/28 15:48:59;;;;;;;6.00;2.40;;;;;;;;;;5934058;29;20494;-89
2023/10/28 15:52:02;;;;;;;8.30;3.25;;;;;;;;;;5925155;29;20433;-89
2023/10/28 15:55:08;;;;;;;6.18;1.92;;;;;;;;;;5932497;29;20051;-89
2023/10/28 15:58:09;;;;;;;8.18;3.63;;;;;;;;;;5937477;29;20050;-89
2023/10/28 16:01:12;;;;;;;5.70;2.97;;;;;;;;;;5928055;29;20143;-89
2023/10/28 16:04:14;;;;;;;9.52;4.13;;;;;;;;;;5936303;29;20509;-90
2023/10/28 16:07:17;;;;;;;10.20;4.82;;;;;;;;;;5945042;29;20054;-89
2023/10/28 16:10:19;;;;;;;;;;;;;;;;;;5943802;29;20047;-90
2023/10/28 16:13:20;;;;;;;10.77;3.35;;;;;;;;;;5933170;29;19936;-89
2023/10/28 16:16:23;;;;;;;11.82;4.65;;;;;;;;;;5944416;29;20051;-90
2023/10/28 16:19:25;;;;;;;8.15;3.83;;;;;;;;;;5949988;29;20549;-90
2023/10/28 16:22:27;;;;;;;12.20;4.45;;;;;;;;;;5935737;29;20044;-89
2023/10/28 16:25:28;;;;;;;4.90;2.38;;;;;;;;;;5932868;29;20562;-89
2023/10/28 16:28:31;;;;;;;7.63;3.90;;;;;;;;;;5932153;29;20531;-91
2023/10/28 16:31:33;;;;;;;9.02;3.50;;;;;;;;;;5932062;29;20055;-91
2023/10/28 16:34:35;;;;;;;11.55;5.57;;;;;;;;;;5943967;29;20057;-90
2023/10/28 16:37:37;;;;;;;17.90;7.70;;;;;;;;;;5937945;29;20063;-91
2023/10/28 16:40:41;;;;;;;17.67;9.00;;;;;;;;;;5954001;29;20050;-91
2023/10/28 16:43:43;;;;;;;19.25;8.85;;;;;;;;;;5947776;29;20150;-91
2023/10/28 16:46:46;;;;;;;20.38;8.68;;;;;;;;;;5947392;29;20227;-91
2023/10/28 16:49:48;;;;;;;14.05;6.50;;;;;;;;;;5946147;29;20058;-91
2023/10/28 16:52:50;;;;;;;7.82;3.80;;;;;;;;;;5949244;29;20062;-89
2023/10/28 16:56:03;;;;;;;11.73;6.07;;;;;;;;;;5938003;29;20455;-88
2023/10/28 16:59:05;;;;;;;34.45;17.40;;;;;;;;;;5946430;29;20457;-90
2023/10/28 17:02:08;;;;;;;18.77;10.10;;;;;;;;;;5932607;29;20451;-90
2023/10/28 17:05:12;;;;;;;10.93;6.45;;;;;;;;;;5953715;29;20047;-90
2023/10/28 17:08:14;;;;;;;9.15;5.70;;;;;;;;;;5963740;29;20063;-91
2023/10/28 17:11:16;;;;;;;18.65;9.85;;;;;;;;;;5974716;29;20065;-91
2023/10/28 17:14:18;;;;;;;8.93;5.13;;;;;;;;;;5972394;29;20035;-90
2023/10/28 17:17:20;;;;;;;17.75;8.40;;;;;;;;;;5977666;29;20054;-90
2023/10/28 17:20:21;;;;;;;13.40;7.50;;;;;;;;;;5950443;29;20043;-90
2023/10/28 17:23:23;;;;;;;11.63;7.03;;;;;;;;;;5932069;29;20524;-90
2023/10/28 17:26:25;;;;;;;13.40;5.75;;;;;;;;;;5934479;29;20047;-91
2023/10/28 17:29:27;;;;;;;14.65;8.18;;;;;;;;;;5932189;29;20069;-89
2023/10/28 17:32:29;;;;;;;8.57;4.13;;;;;;;;;;5944247;29;20147;-89
2023/10/28 17:35:33;;;;;;;10.20;4.45;;;;;;;;;;5936086;29;20062;-89
2023/10/28 17:38:35;;;;;;;12.90;6.90;;;;;;;;;;5943483;29;20051;-89
2023/10/28 17:41:40;;;;;;;13.45;6.13;;;;;;;;;;5943362;29;20142;-89
2023/10/28 17:44:42;;;;;;;13.80;6.00;;;;;;;;;;5940182;29;20062;-90
2023/10/28 17:47:44;;;;;;;10.70;6.97;;;;;;;;;;5949987;29;20538;-90
2023/10/28 17:50:46;;;;;;;9.10;5.65;;;;;;;;;;5958847;29;20639;-91
2023/10/28 17:53:47;;;;;;;5.53;3.75;;;;;;;;;;5927011;29;20544;-89
2023/10/28 17:56:49;;;;;;;8.13;6.15;;;;;;;;;;5930998;29;20051;-90
2023/10/28 17:59:51;;;;;;;6.93;4.78;;;;;;;;;;5933721;29;20554;-90
2023/10/28 18:02:53;;;;;;;14.80;6.97;;;;;;;;;;5939545;29;20109;-89
2023/10/28 18:05:55;;;;;;;11.30;7.03;;;;;;;;;;5934896;29;20062;-89
2023/10/28 18:08:59;;;;;;;7.38;4.38;;;;;;;;;;5949645;29;20062;-90
2023/10/28 18:12:00;;;;;;;10.93;7.28;;;;;;;;;;5934022;29;20473;-90
2023/10/28 18:15:03;;;;;;;13.02;7.32;;;;;;;;;;5936146;29;20050;-89